TimeCEST,TemperatureF,Dew PointF,Humidity,Sea Level PressureIn,VisibilityMPH,Wind Direction,Wind SpeedMPH,Gust SpeedMPH,PrecipitationIn,Events,Conditions,WindDirDegrees,DateUTC
12:25 AM,33.8,17.6,52,29.83,6.2,NE,8.1,-,N/A,,Clear,50,2013-04-01 22:25:00
12:55 AM,33.8,17.6,52,29.83,6.2,NE,8.1,-,N/A,,Clear,50,2013-04-01 22:55:00
1:25 AM,33.8,17.6,52,29.83,6.2,NE,6.9,-,N/A,,Clear,50,2013-04-01 23:25:00
1:55 AM,32.0,17.6,55,29.83,6.2,NNE,6.9,-,N/A,,Clear,30,2013-04-01 23:55:00
2:00 AM,32,18,44,29.87,12,NE,6.7,,,,,40,2013-04-02 00:00:00
2:25 AM,32.0,17.6,55,29.86,6.2,NE,8.1,-,N/A,,Clear,40,2013-04-02 00:25:00
2:55 AM,30.2,17.6,60,29.86,6.2,NE,8.1,-,N/A,,Partly Cloudy,40,2013-04-02 00:55:00
3:25 AM,30.2,19.4,64,29.86,6.2,NE,6.9,-,N/A,,Partly Cloudy,40,2013-04-02 01:25:00
3:55 AM,28.4,19.4,69,29.86,6.2,NE,6.9,-,N/A,,Scattered Clouds,40,2013-04-02 01:55:00
4:25 AM,28.4,19.4,69,29.86,6.2,NE,8.1,-,N/A,,Scattered Clouds,40,2013-04-02 02:25:00
4:55 AM,28.4,19.4,69,29.86,6.2,NE,6.9,-,N/A,,Scattered Clouds,40,2013-04-02 02:55:00
5:00 AM,29,19,56,29.88,12,NE,6.7,,,,Partly Cloudy,40,2013-04-02 03:00:00
5:25 AM,28.4,19.4,69,29.86,6.2,NE,6.9,-,N/A,,Partly Cloudy,50,2013-04-02 03:25:00
5:55 AM,28.4,19.4,69,29.86,6.2,NE,5.8,-,N/A,,Clear,40,2013-04-02 03:55:00
6:25 AM,26.6,19.4,74,29.86,6.2,NNE,5.8,-,N/A,,Clear,30,2013-04-02 04:25:00
6:55 AM,26.6,19.4,74,29.86,6.2,NE,5.8,-,N/A,,Clear,40,2013-04-02 04:55:00
6:57 AM,26.6,19.4,74,29.86,6.2,NE,5.8,-,N/A,,Clear,40,2013-04-02 04:57:00
7:25 AM,26.6,19.4,74,29.86,6.2,NE,6.9,-,N/A,,Clear,40,2013-04-02 05:25:00
7:55 AM,28.4,21.2,74,29.86,6.2,NE,8.1,-,N/A,,Clear,40,2013-04-02 05:55:00
8:00 AM,28,20,63,29.90,11,NE,8.9,,,,,40,2013-04-02 06:00:00
8:25 AM,30.2,21.2,69,29.89,6.2,NE,10.4,-,N/A,,Clear,50,2013-04-02 06:25:00
8:55 AM,32.0,21.2,64,29.89,6.2,ENE,13.8,-,N/A,,Clear,60,2013-04-02 06:55:00
9:25 AM,33.8,21.2,60,29.89,6.2,ENE,16.1,-,N/A,,Clear,60,2013-04-02 07:25:00
9:55 AM,37.4,21.2,52,29.89,6.2,ENE,13.8,-,N/A,,Clear,60,2013-04-02 07:55:00
10:25 AM,37.4,21.2,52,29.89,6.2,ENE,16.1,-,N/A,,Clear,70,2013-04-02 08:25:00
10:55 AM,39.2,21.2,49,29.89,6.2,ENE,17.3,-,N/A,,Partly Cloudy,70,2013-04-02 08:55:00
11:00 AM,39,20,34,29.91,12,ENE,17.9,,,,Scattered Clouds,70,2013-04-02 09:00:00
11:25 AM,41.0,21.2,45,29.89,6.2,ENE,17.3,-,N/A,,Scattered Clouds,70,2013-04-02 09:25:00
11:55 AM,41.0,19.4,42,29.89,6.2,ENE,17.3,-,N/A,,Partly Cloudy,60,2013-04-02 09:55:00
12:25 PM,42.8,19.4,39,29.89,6.2,ENE,16.1,-,N/A,,Partly Cloudy,70,2013-04-02 10:25:00
12:55 PM,42.8,19.4,39,29.89,6.2,East,16.1,-,N/A,,Partly Cloudy,80,2013-04-02 10:55:00
1:25 PM,44.6,19.4,37,29.89,6.2,ENE,16.1,-,N/A,,Partly Cloudy,60,2013-04-02 11:25:00
1:55 PM,44.6,19.4,37,29.89,6.2,ENE,17.3,-,N/A,,Partly Cloudy,60,2013-04-02 11:55:00
2:00 PM,46,19,22,29.90,16,ENE,15.7,,,,Scattered Clouds,60,2013-04-02 12:00:00
2:25 PM,44.6,19.4,37,29.89,6.2,NE,17.3,-,N/A,,Partly Cloudy,50,2013-04-02 12:25:00
2:55 PM,46.4,19.4,34,29.86,6.2,ENE,16.1,-,N/A,,Partly Cloudy,60,2013-04-02 12:55:00
3:25 PM,46.4,19.4,34,29.86,6.2,NE,19.6,-,N/A,,Partly Cloudy,40,2013-04-02 13:25:00
4:25 PM,46.4,19.4,34,29.86,6.2,ENE,17.3,-,N/A,,Partly Cloudy,60,2013-04-02 14:25:00
4:55 PM,46.4,17.6,32,29.86,6.2,ENE,13.8,-,N/A,,Partly Cloudy,60,2013-04-02 14:55:00
5:00 PM,48,17,17,29.88,16,ENE,13.4,,,,Clear,60,2013-04-02 15:00:00
5:25 PM,46.4,17.6,32,29.86,6.2,ENE,16.1,-,N/A,,Clear,60,2013-04-02 15:25:00
5:55 PM,46.4,15.8,29,29.86,6.2,ENE,17.3,-,N/A,,Clear,60,2013-04-02 15:55:00
6:25 PM,46.4,15.8,29,29.86,6.2,ENE,16.1,-,N/A,,Clear,60,2013-04-02 16:25:00
6:55 PM,44.6,15.8,31,29.89,6.2,NE,16.1,-,N/A,,Clear,50,2013-04-02 16:55:00
7:25 PM,42.8,15.8,34,29.89,6.2,NE,13.8,-,N/A,,Clear,50,2013-04-02 17:25:00
7:55 PM,42.8,15.8,34,29.89,6.2,ENE,15.0,-,N/A,,Clear,60,2013-04-02 17:55:00
8:00 PM,42,16,22,29.92,16,ENE,13.4,,,,,60,2013-04-02 18:00:00
8:25 PM,41.0,17.6,39,29.92,6.2,ENE,13.8,-,N/A,,Clear,60,2013-04-02 18:25:00
8:55 PM,39.2,17.6,42,29.92,6.2,NE,10.4,-,N/A,,Clear,50,2013-04-02 18:55:00
9:25 PM,39.2,19.4,45,29.92,6.2,NE,10.4,-,N/A,,Clear,50,2013-04-02 19:25:00
9:55 PM,37.4,19.4,48,29.92,6.2,NE,10.4,-,N/A,,Clear,50,2013-04-02 19:55:00
10:25 PM,37.4,19.4,48,29.95,6.2,NE,10.4,-,N/A,,Clear,50,2013-04-02 20:25:00
10:55 PM,37.4,19.4,48,29.95,6.2,NE,9.2,-,N/A,,Clear,50,2013-04-02 20:55:00
11:00 PM,37,20,36,29.96,16,NE,8.9,,,,,50,2013-04-02 21:00:00
11:25 PM,35.6,19.4,52,29.95,6.2,NE,9.2,-,N/A,,Clear,50,2013-04-02 21:25:00
11:55 PM,35.6,21.2,56,29.95,6.2,ENE,9.2,-,N/A,,Clear,60,2013-04-02 21:55:00